Detall de PIREP

Printer-friendly versionPDF version

[2011/01/21 22:20:00]
Flight IATA:CT3101
Pilot Number:026
Company ICAO:CAT
Aircraft Type:DC85/A
PAX:136
Departing Airport: LEBL
Destination Airport: LIEA
Alternate Airport:LIEA
Online: VATSIM
Route:VERSO UM24 LAPIT UN725 ORKUM UM603 ELSAG
Flight Level:F280
No Slew and time accel
No pause
Crash detect
Detect pilot in Cockpit between each 30 and 45 minutes
22:20 Zero fuel Weight: 178200 Lbs, Fuel Weight: 22008 Lbs
22:20 VATSIM:LEBL 212200Z 34007KT 9999 FEW030 03/M09 Q1021 NOSIG
22:20 VATSIM:LIEA 212150Z 06012KT 9999 SCT020 05/03 Q1011
22:21 VOICE CATALONIAN / INTERHUB ROUTE CT3101
22:25 Parking Brakes off
22:38 Take-off
22:38 Take off Weight: 198770 Lbs
22:38 Wind: 342º @ 007 Knots Heading: 246º
22:38 POS N41º 17´ 02´´ E002º 04´ 48´´
22:38 Gear Up: 175 Knots
22:38 Flaps:3 at 175 Knots
22:39 Flaps:2 at 175 Knots
22:40 Flaps:1 at 201 Knots
22:41 Flaps:0 at 187 Knots
22:50 TOC
22:50 Fuel Weight: 16483 Lb
22:53 Wind:345º@028 Knots Heading: 029º Ground Speed: 420 Knots Altitude 28356 ft
23:08 Wind:347º@038 Knots Heading: 092º Ground Speed: 480 Knots Altitude 28152 ft
23:08 TOD
23:08 Fuel Weight: 12103 Lb
23:23 Wind:041º@015 Knots Heading: 095º Ground Speed: 261 Knots Altitude 9045 ft
23:32 Flaps:1 at 196 Knots
23:35 Gear Down: 176 Knots
23:35 Flaps:2 at 146 Knots
23:35 Flaps:3 at 138 Knots
23:37 Flaps:4 at 151 Knots
23:38 Wind:060º@009 Knots Heading: 025º Ground Speed: 134 Knots Altitude 223 ft
23:38 Flaps:5 at 142 Knots
23:38 TouchDown:Rate -324 ft/min Speed: 121 Knots
23:38 VATSIM:LIEA 212320Z 05009KT 9999 SCT025 06/03 Q1010
23:38 Land
23:38 Wind:060º@009 Knots
23:38 Heading: 025º
23:38 Flight Duration: 01:00
23:38 Landing Weight: 186937 Lbs
23:38 POS N40º 37´ 53´´ E008º 17´ 25´´
23:42 Parking brakes on
23:42 Block to Block Duration: 01:17
23:42 Final Fuel: 8377 Lbls
23:42 Spent Fuel: 13630 Lbls
23:42 Flight Length: 346 NM
23:42 TOD Land Length: 149 NM

Exportar CSV

Powered by Drupal - Modified by Danger4k